Time;durP1;ratioP1;P1;durP2;ratioP2;P2;SDS_P1;SDS_P2;PMS_P1;PMS_P2;Temp;Humidity;BMP_temperature;BMP_pressure;BME280_temperature;BME280_humidity;BME280_pressure;Samples;Min_cycle;Max_cycle;Signal;HPM_P1;HPM_P2
2021/10/04 00:01:33;;;;;;;0.40;0.40;;;;;;;;;;5056513;28;20173;-81
2021/10/04 00:03:59;;;;;;;0.40;0.40;;;;;;;;;;5056161;28;20274;-81
2021/10/04 00:06:25;;;;;;;0.40;0.40;;;;;;;;;;5053183;28;20190;-81
2021/10/04 00:08:51;;;;;;;0.40;0.40;;;;;;;;;;5057603;28;20439;-81
2021/10/04 00:11:17;;;;;;;0.40;0.40;;;;;;;;;;5059754;28;20523;-81
2021/10/04 00:13:43;;;;;;;0.40;0.40;;;;;;;;;;5053771;28;20427;-81
2021/10/04 00:16:09;;;;;;;0.40;0.40;;;;;;;;;;5056299;28;20184;-81
2021/10/04 00:18:35;;;;;;;0.40;0.40;;;;;;;;;;5059139;28;20455;-81
2021/10/04 00:21:01;;;;;;;0.40;0.40;;;;;;;;;;5057021;28;20193;-81
2021/10/04 00:23:27;;;;;;;0.40;0.40;;;;;;;;;;5057632;28;20212;-81
2021/10/04 00:25:53;;;;;;;0.40;0.40;;;;;;;;;;5070424;28;20428;-81
2021/10/04 00:28:19;;;;;;;0.40;0.40;;;;;;;;;;5061998;28;20531;-81
2021/10/04 00:30:45;;;;;;;0.40;0.40;;;;;;;;;;5053994;28;20444;-81
2021/10/04 00:33:11;;;;;;;0.40;0.40;;;;;;;;;;5054765;28;20178;-81
2021/10/04 00:35:37;;;;;;;0.40;0.40;;;;;;;;;;5056979;28;20439;-80
2021/10/04 00:38:03;;;;;;;0.40;0.40;;;;;;;;;;5071472;28;20178;-80
2021/10/04 00:40:31;;;;;;;0.40;0.40;;;;;;;;;;5055584;28;20622;-81
2021/10/04 00:42:58;;;;;;;0.40;0.40;;;;;;;;;;5059466;28;20173;-81
2021/10/04 00:45:25;;;;;;;0.40;0.40;;;;;;;;;;5057169;28;20194;-81
2021/10/04 00:47:51;;;;;;;0.40;0.40;;;;;;;;;;5056371;28;20184;-81
2021/10/04 00:50:19;;;;;;;0.40;0.40;;;;;;;;;;5073945;28;20204;-82
2021/10/04 00:52:45;;;;;;;0.40;0.40;;;;;;;;;;5054356;28;20554;-81
2021/10/04 00:55:11;;;;;;;0.40;0.40;;;;;;;;;;5060241;28;20630;-81
2021/10/04 00:57:38;;;;;;;0.40;0.40;;;;;;;;;;5058074;28;20177;-81
2021/10/04 01:00:05;;;;;;;0.40;0.40;;;;;;;;;;5056692;28;20189;-81
2021/10/04 01:02:31;;;;;;;0.40;0.40;;;;;;;;;;5057975;28;20225;-82
2021/10/04 01:04:57;;;;;;;0.40;0.40;;;;;;;;;;5059900;28;20620;-81
2021/10/04 01:07:23;;;;;;;0.40;0.40;;;;;;;;;;5061496;28;20419;-81
2021/10/04 01:09:49;;;;;;;0.40;0.40;;;;;;;;;;5058152;28;20416;-81
2021/10/04 01:12:16;;;;;;;0.40;0.40;;;;;;;;;;5057705;28;20247;-81
2021/10/04 01:14:42;;;;;;;0.40;0.40;;;;;;;;;;5060906;28;20193;-81
2021/10/04 01:17:08;;;;;;;0.40;0.40;;;;;;;;;;5074123;28;20181;-81
2021/10/04 01:19:38;;;;;;;0.40;0.40;;;;;;;;;;5061979;28;20794;-81
2021/10/04 01:22:04;;;;;;;0.40;0.40;;;;;;;;;;5074743;28;20181;-81
2021/10/04 01:24:30;;;;;;;0.40;0.40;;;;;;;;;;5061286;28;20205;-81
2021/10/04 01:26:56;;;;;;;0.40;0.40;;;;;;;;;;5059166;28;20208;-81
2021/10/04 01:29:22;;;;;;;0.40;0.40;;;;;;;;;;5073938;28;20455;-81
2021/10/04 01:31:48;;;;;;;0.40;0.40;;;;;;;;;;5058357;28;20252;-81
2021/10/04 01:34:14;;;;;;;0.40;0.40;;;;;;;;;;5064799;28;20173;-81
2021/10/04 01:36:40;;;;;;;0.40;0.40;;;;;;;;;;5061488;28;20653;-81
2021/10/04 01:39:06;;;;;;;0.40;0.40;;;;;;;;;;5057427;28;20224;-82
2021/10/04 01:41:33;;;;;;;0.40;0.40;;;;;;;;;;5061337;28;20268;-81
2021/10/04 01:43:59;;;;;;;0.40;0.40;;;;;;;;;;5072195;28;20226;-81
2021/10/04 01:46:25;;;;;;;0.40;0.40;;;;;;;;;;5060083;28;20687;-81
2021/10/04 01:48:51;;;;;;;0.40;0.40;;;;;;;;;;5059706;28;20173;-81
2021/10/04 01:51:17;;;;;;;0.40;0.40;;;;;;;;;;5060372;28;20431;-81
2021/10/04 01:53:43;;;;;;;0.40;0.40;;;;;;;;;;5062276;28;20439;-81
2021/10/04 01:56:09;;;;;;;0.40;0.40;;;;;;;;;;5061059;28;20204;-81
2021/10/04 01:58:35;;;;;;;0.40;0.40;;;;;;;;;;5061383;28;20206;-82
2021/10/04 02:01:03;;;;;;;0.40;0.40;;;;;;;;;;5054424;28;20186;-82
2021/10/04 02:03:29;;;;;;;0.40;0.40;;;;;;;;;;5053578;28;20224;-82
2021/10/04 02:05:56;;;;;;;0.40;0.40;;;;;;;;;;5058709;28;20181;-82
2021/10/04 02:08:22;;;;;;;0.40;0.40;;;;;;;;;;5072803;28;20433;-81
2021/10/04 02:10:48;;;;;;;0.40;0.40;;;;;;;;;;5056456;28;20182;-82
2021/10/04 02:13:16;;;;;;;0.40;0.40;;;;;;;;;;5059489;28;20189;-82
2021/10/04 02:15:42;;;;;;;0.40;0.40;;;;;;;;;;5055162;28;20186;-82
2021/10/04 02:18:09;;;;;;;0.40;0.40;;;;;;;;;;5058426;28;20289;-82
2021/10/04 02:20:36;;;;;;;0.40;0.40;;;;;;;;;;5061404;28;20241;-81
2021/10/04 02:23:06;;;;;;;0.40;0.40;;;;;;;;;;5066913;28;20181;-82
2021/10/04 02:25:33;;;;;;;0.40;0.40;;;;;;;;;;5063318;28;20165;-81
2021/10/04 02:27:59;;;;;;;0.40;0.40;;;;;;;;;;5062946;28;20245;-81
2021/10/04 02:30:25;;;;;;;0.40;0.40;;;;;;;;;;5057366;28;20196;-81
2021/10/04 02:32:52;;;;;;;0.40;0.40;;;;;;;;;;5058927;28;20501;-82
2021/10/04 02:35:19;;;;;;;0.40;0.40;;;;;;;;;;5060499;28;20646;-82
2021/10/04 02:37:45;;;;;;;0.40;0.40;;;;;;;;;;5056553;28;20204;-82
2021/10/04 02:40:11;;;;;;;0.40;0.40;;;;;;;;;;5062689;28;20657;-82
2021/10/04 02:42:38;;;;;;;0.40;0.40;;;;;;;;;;5056148;28;20181;-82
2021/10/04 02:45:07;;;;;;;0.40;0.40;;;;;;;;;;5056742;28;20224;-82
2021/10/04 02:47:33;;;;;;;0.40;0.40;;;;;;;;;;5050462;28;20534;-81
2021/10/04 02:49:59;;;;;;;0.40;0.40;;;;;;;;;;5072439;28;20190;-82
2021/10/04 02:52:25;;;;;;;0.40;0.40;;;;;;;;;;5058649;28;20244;-81
2021/10/04 02:54:51;;;;;;;0.40;0.40;;;;;;;;;;5057170;28;20251;-82
2021/10/04 02:57:17;;;;;;;0.40;0.40;;;;;;;;;;5056223;28;20257;-82
2021/10/04 02:59:43;;;;;;;0.40;0.40;;;;;;;;;;5057948;28;20471;-82
2021/10/04 03:02:09;;;;;;;0.40;0.40;;;;;;;;;;5060041;28;20189;-81
2021/10/04 03:04:35;;;;;;;0.40;0.40;;;;;;;;;;5057266;28;20220;-82
2021/10/04 03:07:01;;;;;;;0.40;0.40;;;;;;;;;;5057081;28;20420;-82
2021/10/04 03:09:27;;;;;;;0.40;0.40;;;;;;;;;;5054741;28;20182;-82
2021/10/04 03:11:53;;;;;;;0.40;0.40;;;;;;;;;;5057973;28;20205;-82
2021/10/04 03:14:19;;;;;;;0.40;0.40;;;;;;;;;;5059695;28;20226;-82
2021/10/04 03:16:45;;;;;;;0.40;0.40;;;;;;;;;;5056137;28;20184;-81
2021/10/04 03:19:12;;;;;;;0.40;0.40;;;;;;;;;;5058538;28;20244;-82
2021/10/04 03:21:37;;;;;;;0.40;0.40;;;;;;;;;;5055928;28;20240;-82
2021/10/04 03:24:04;;;;;;;0.40;0.40;;;;;;;;;;5056803;28;20303;-81
2021/10/04 03:26:30;;;;;;;0.40;0.40;;;;;;;;;;5059671;28;20526;-82
2021/10/04 03:28:56;;;;;;;0.40;0.40;;;;;;;;;;5069454;28;20178;-81
2021/10/04 03:31:22;;;;;;;0.40;0.40;;;;;;;;;;5059681;28;20169;-81
2021/10/04 03:33:48;;;;;;;0.40;0.40;;;;;;;;;;5057959;28;20234;-81
2021/10/04 03:36:14;;;;;;;0.40;0.40;;;;;;;;;;5057453;28;20242;-81
2021/10/04 03:38:40;;;;;;;0.40;0.40;;;;;;;;;;5057637;28;20196;-81
2021/10/04 03:41:06;;;;;;;0.40;0.40;;;;;;;;;;5057420;28;20431;-81
2021/10/04 03:43:32;;;;;;;0.40;0.40;;;;;;;;;;5060019;28;20482;-81
2021/10/04 03:45:58;;;;;;;0.40;0.40;;;;;;;;;;5058066;28;20248;-82
2021/10/04 03:48:24;;;;;;;0.40;0.40;;;;;;;;;;5056679;28;20276;-81
2021/10/04 03:50:50;;;;;;;0.40;0.40;;;;;;;;;;5056377;28;20177;-81
2021/10/04 03:53:16;;;;;;;0.40;0.40;;;;;;;;;;5057720;28;20174;-81
2021/10/04 03:55:42;;;;;;;0.40;0.40;;;;;;;;;;5059978;28;20264;-81
2021/10/04 03:58:08;;;;;;;0.40;0.40;;;;;;;;;;5057302;28;20211;-81
2021/10/04 04:00:34;;;;;;;0.40;0.40;;;;;;;;;;5059691;28;20181;-81
2021/10/04 04:03:00;;;;;;;0.40;0.40;;;;;;;;;;5058527;28;20446;-81
2021/10/04 04:05:26;;;;;;;0.40;0.40;;;;;;;;;;5058926;28;20192;-81
2021/10/04 04:07:52;;;;;;;0.40;0.40;;;;;;;;;;5058165;28;20231;-81
2021/10/04 04:10:18;;;;;;;0.40;0.40;;;;;;;;;;5058567;28;20172;-81
2021/10/04 04:12:45;;;;;;;0.40;0.40;;;;;;;;;;5055690;28;20460;-81
2021/10/04 04:15:12;;;;;;;0.40;0.40;;;;;;;;;;5055639;28;20186;-81
2021/10/04 04:17:38;;;;;;;0.40;0.40;;;;;;;;;;5058040;28;20181;-81
2021/10/04 04:20:05;;;;;;;0.40;0.40;;;;;;;;;;5055953;28;20178;-81
2021/10/04 04:22:31;;;;;;;0.40;0.40;;;;;;;;;;5056599;28;20177;-81
2021/10/04 04:24:57;;;;;;;0.40;0.40;;;;;;;;;;5056951;28;20259;-81
2021/10/04 04:27:25;;;;;;;0.40;0.40;;;;;;;;;;5054608;28;20444;-80
2021/10/04 04:29:52;;;;;;;0.40;0.40;;;;;;;;;;5055746;28;20200;-80
2021/10/04 04:32:18;;;;;;;0.40;0.40;;;;;;;;;;5056883;28;20203;-80
2021/10/04 04:34:44;;;;;;;0.40;0.40;;;;;;;;;;5056286;28;20192;-80
2021/10/04 04:37:10;;;;;;;0.40;0.40;;;;;;;;;;5057160;28;20795;-80
2021/10/04 04:39:36;;;;;;;0.40;0.40;;;;;;;;;;5054169;28;20181;-80
2021/10/04 04:42:03;;;;;;;0.40;0.40;;;;;;;;;;5058871;28;20197;-81
2021/10/04 04:44:30;;;;;;;0.40;0.40;;;;;;;;;;5057266;28;20576;-81
2021/10/04 04:46:57;;;;;;;0.40;0.40;;;;;;;;;;5054770;28;20212;-80
2021/10/04 04:49:26;;;;;;;0.40;0.40;;;;;;;;;;5057255;28;20184;-81
2021/10/04 04:52:01;;;;;;;0.40;0.40;;;;;;;;;;5054069;28;20201;-81
2021/10/04 04:54:27;;;;;;;0.40;0.40;;;;;;;;;;5058019;28;20188;-80
2021/10/04 04:56:59;;;;;;;0.40;0.40;;;;;;;;;;5055389;28;20185;-81
2021/10/04 04:59:25;;;;;;;0.40;0.40;;;;;;;;;;5055469;28;20174;-80
2021/10/04 05:01:52;;;;;;;0.40;0.40;;;;;;;;;;5059747;28;20223;-80
2021/10/04 05:04:18;;;;;;;0.40;0.40;;;;;;;;;;5062205;28;20480;-81
2021/10/04 05:06:44;;;;;;;0.40;0.40;;;;;;;;;;5053118;28;20181;-81
2021/10/04 05:09:10;;;;;;;0.40;0.40;;;;;;;;;;5053054;28;20189;-81
2021/10/04 05:11:36;;;;;;;0.45;0.45;;;;;;;;;;5057857;28;20620;-81
2021/10/04 05:14:02;;;;;;;0.40;0.40;;;;;;;;;;5070575;28;20185;-81
2021/10/04 05:16:29;;;;;;;0.40;0.40;;;;;;;;;;5056816;28;20174;-80
2021/10/04 05:18:55;;;;;;;0.40;0.40;;;;;;;;;;5060214;28;20179;-81
2021/10/04 05:21:21;;;;;;;0.40;0.40;;;;;;;;;;5055623;28;20200;-81
2021/10/04 05:23:47;;;;;;;0.40;0.40;;;;;;;;;;5056503;28;20232;-81
2021/10/04 05:26:13;;;;;;;0.40;0.40;;;;;;;;;;5072142;28;20429;-80
2021/10/04 05:28:39;;;;;;;0.40;0.40;;;;;;;;;;5056922;28;20169;-81
2021/10/04 05:31:05;;;;;;;0.40;0.40;;;;;;;;;;5070514;28;20260;-81
2021/10/04 05:33:31;;;;;;;0.40;0.40;;;;;;;;;;5055220;28;20193;-81
2021/10/04 05:35:57;;;;;;;0.40;0.40;;;;;;;;;;5056909;28;20193;-80
2021/10/04 05:38:23;;;;;;;0.40;0.40;;;;;;;;;;5059759;28;20245;-81
2021/10/04 05:40:49;;;;;;;0.40;0.40;;;;;;;;;;5053910;28;20196;-80
2021/10/04 05:43:16;;;;;;;0.40;0.40;;;;;;;;;;5048215;28;20213;-81
2021/10/04 05:45:42;;;;;;;0.60;0.60;;;;;;;;;;5050733;28;20185;-81
2021/10/04 05:48:08;;;;;;;0.40;0.40;;;;;;;;;;5058242;28;20207;-80
2021/10/04 05:50:34;;;;;;;0.40;0.40;;;;;;;;;;5057993;28;20435;-80
2021/10/04 05:53:00;;;;;;;0.40;0.40;;;;;;;;;;5075623;28;20207;-80
2021/10/04 05:55:26;;;;;;;0.40;0.40;;;;;;;;;;5065392;28;20212;-80
2021/10/04 05:57:52;;;;;;;0.40;0.40;;;;;;;;;;5079209;28;20319;-80
2021/10/04 06:00:18;;;;;;;0.40;0.40;;;;;;;;;;5056499;28;20280;-80
2021/10/04 06:02:44;;;;;;;0.40;0.40;;;;;;;;;;5057237;28;20447;-81
2021/10/04 06:05:11;;;;;;;0.40;0.40;;;;;;;;;;5057454;28;20212;-80
2021/10/04 06:07:37;;;;;;;0.40;0.40;;;;;;;;;;5065034;28;20721;-80
2021/10/04 06:10:04;;;;;;;0.40;0.40;;;;;;;;;;5058934;28;20622;-81
2021/10/04 06:12:30;;;;;;;0.40;0.40;;;;;;;;;;5056905;28;20199;-82
2021/10/04 06:14:56;;;;;;;0.40;0.40;;;;;;;;;;5058625;28;20193;-80
2021/10/04 06:17:22;;;;;;;0.40;0.40;;;;;;;;;;5053364;28;20185;-82
2021/10/04 06:19:49;;;;;;;0.40;0.40;;;;;;;;;;5061276;28;20518;-83
2021/10/04 06:22:15;;;;;;;0.40;0.40;;;;;;;;;;5061932;28;20260;-83
2021/10/04 06:24:41;;;;;;;0.40;0.40;;;;;;;;;;5059509;28;20212;-82
2021/10/04 06:27:07;;;;;;;0.40;0.40;;;;;;;;;;5061441;28;20197;-82
2021/10/04 06:29:33;;;;;;;0.40;0.40;;;;;;;;;;5059075;28;20186;-82
2021/10/04 06:31:59;;;;;;;0.40;0.40;;;;;;;;;;5061335;28;20926;-83
2021/10/04 06:34:25;;;;;;;0.40;0.40;;;;;;;;;;5076605;28;20173;-82
2021/10/04 06:36:51;;;;;;;0.40;0.40;;;;;;;;;;5072785;28;20185;-83
2021/10/04 06:39:17;;;;;;;0.40;0.40;;;;;;;;;;5054596;28;20189;-80
2021/10/04 06:41:43;;;;;;;0.40;0.40;;;;;;;;;;5057591;28;20181;-83
2021/10/04 06:44:09;;;;;;;0.40;0.40;;;;;;;;;;5057509;28;20217;-81
2021/10/04 06:46:36;;;;;;;0.40;0.40;;;;;;;;;;5068464;28;20272;-83
2021/10/04 06:49:02;;;;;;;0.40;0.40;;;;;;;;;;5059154;28;20260;-82
2021/10/04 06:51:28;;;;;;;0.40;0.40;;;;;;;;;;5057264;28;20177;-82
2021/10/04 06:53:54;;;;;;;0.40;0.40;;;;;;;;;;5053953;28;20201;-82
2021/10/04 06:56:20;;;;;;;0.40;0.40;;;;;;;;;;5072603;28;20186;-83
2021/10/04 06:58:46;;;;;;;0.40;0.40;;;;;;;;;;5060327;28;20192;-83
2021/10/04 07:01:12;;;;;;;0.40;0.40;;;;;;;;;;5062272;28;20184;-83
2021/10/04 07:03:38;;;;;;;0.40;0.40;;;;;;;;;;5059597;28;20487;-83
2021/10/04 07:06:04;;;;;;;0.40;0.40;;;;;;;;;;5063226;28;20775;-82
2021/10/04 07:08:31;;;;;;;0.40;0.40;;;;;;;;;;5061189;28;20435;-83
2021/10/04 07:10:57;;;;;;;0.40;0.40;;;;;;;;;;5074702;28;20448;-83
2021/10/04 07:13:23;;;;;;;0.40;0.40;;;;;;;;;;5061932;28;20234;-82
2021/10/04 07:15:49;;;;;;;0.40;0.40;;;;;;;;;;5056430;28;20178;-84
2021/10/04 07:18:16;;;;;;;0.40;0.40;;;;;;;;;;5071681;28;20181;-84
2021/10/04 07:20:42;;;;;;;0.40;0.40;;;;;;;;;;5057723;28;20181;-83
2021/10/04 07:23:08;;;;;;;0.40;0.40;;;;;;;;;;5062677;28;20618;-84
2021/10/04 07:25:35;;;;;;;0.40;0.40;;;;;;;;;;5061518;28;20184;-85
2021/10/04 07:28:02;;;;;;;0.40;0.40;;;;;;;;;;5056697;28;20188;-84
2021/10/04 07:30:28;;;;;;;0.40;0.40;;;;;;;;;;5060435;28;20205;-86
2021/10/04 07:32:55;;;;;;;0.40;0.40;;;;;;;;;;5062140;28;20185;-86
2021/10/04 07:35:22;;;;;;;0.40;0.40;;;;;;;;;;5061658;28;20191;-86
2021/10/04 07:37:48;;;;;;;0.40;0.40;;;;;;;;;;5060430;28;20193;-86
2021/10/04 07:40:14;;;;;;;0.40;0.40;;;;;;;;;;5061908;28;20211;-85
2021/10/04 07:42:42;;;;;;;0.40;0.40;;;;;;;;;;5060245;28;20224;-84
2021/10/04 07:45:08;;;;;;;0.40;0.40;;;;;;;;;;5055169;28;20201;-88
2021/10/04 07:47:35;;;;;;;0.40;0.40;;;;;;;;;;5060136;28;20574;-86
2021/10/04 07:50:01;;;;;;;0.40;0.40;;;;;;;;;;5058110;28;20245;-87
2021/10/04 07:52:27;;;;;;;0.40;0.40;;;;;;;;;;5060992;28;20177;-86
2021/10/04 07:54:53;;;;;;;0.40;0.40;;;;;;;;;;5074167;28;20432;-85
2021/10/04 07:57:19;;;;;;;2.45;2.35;;;;;;;;;;5058356;28;20184;-89
2021/10/04 07:59:45;;;;;;;0.40;0.40;;;;;;;;;;5058794;28;20208;-85
2021/10/04 08:02:11;;;;;;;0.40;0.40;;;;;;;;;;5064596;28;20263;-88
2021/10/04 08:04:37;;;;;;;0.40;0.40;;;;;;;;;;5077990;28;20619;-88
2021/10/04 08:07:04;;;;;;;0.40;0.40;;;;;;;;;;5058991;28;20203;-88
2021/10/04 08:09:30;;;;;;;0.40;0.40;;;;;;;;;;5054726;28;20181;-85
2021/10/04 08:11:56;;;;;;;0.40;0.40;;;;;;;;;;5055479;28;20664;-87
2021/10/04 08:14:23;;;;;;;0.40;0.40;;;;;;;;;;5070658;28;20189;-87
2021/10/04 08:16:48;;;;;;;0.40;0.40;;;;;;;;;;5056580;28;20186;-86
2021/10/04 08:19:15;;;;;;;0.40;0.40;;;;;;;;;;5062539;28;20195;-87
2021/10/04 08:21:41;;;;;;;0.40;0.40;;;;;;;;;;5057025;28;20189;-85
2021/10/04 08:24:07;;;;;;;0.40;0.40;;;;;;;;;;5057407;28;20200;-85
2021/10/04 08:26:33;;;;;;;0.40;0.40;;;;;;;;;;5060193;28;20185;-86
2021/10/04 08:28:59;;;;;;;0.40;0.40;;;;;;;;;;5074509;28;20188;-85
2021/10/04 08:31:30;;;;;;;0.40;0.40;;;;;;;;;;5072078;28;20182;-84
2021/10/04 08:33:59;;;;;;;0.40;0.40;;;;;;;;;;5055793;28;20429;-87
2021/10/04 08:36:25;;;;;;;0.40;0.40;;;;;;;;;;5060671;28;20195;-88
2021/10/04 08:38:51;;;;;;;0.40;0.40;;;;;;;;;;5058196;28;20260;-88
2021/10/04 08:41:21;;;;;;;0.40;0.40;;;;;;;;;;5058596;28;20431;-85
2021/10/04 08:43:48;;;;;;;0.40;0.40;;;;;;;;;;5055376;28;20483;-85
2021/10/04 08:46:14;;;;;;;0.40;0.40;;;;;;;;;;5048911;28;20183;-84
2021/10/04 08:48:41;;;;;;;0.40;0.40;;;;;;;;;;5054257;28;20185;-86
2021/10/04 08:51:08;;;;;;;0.40;0.40;;;;;;;;;;5059834;28;20196;-86
2021/10/04 08:53:35;;;;;;;0.40;0.40;;;;;;;;;;5057613;28;20201;-85
2021/10/04 08:56:01;;;;;;;0.40;0.40;;;;;;;;;;5057578;28;20197;-86
2021/10/04 08:58:32;;;;;;;0.40;0.40;;;;;;;;;;5059304;28;20180;-86
2021/10/04 09:00:58;;;;;;;0.40;0.40;;;;;;;;;;5067622;28;20212;-88
2021/10/04 09:03:24;;;;;;;0.40;0.40;;;;;;;;;;5058047;28;20190;-85
2021/10/04 09:05:56;;;;;;;0.40;0.40;;;;;;;;;;5058470;28;20186;-86
2021/10/04 09:08:22;;;;;;;0.40;0.40;;;;;;;;;;5058582;28;20185;-86
2021/10/04 09:10:55;;;;;;;0.40;0.40;;;;;;;;;;5055308;28;20192;-85
2021/10/04 09:13:21;;;;;;;0.40;0.40;;;;;;;;;;5057615;28;20185;-87
2021/10/04 09:15:49;;;;;;;0.40;0.40;;;;;;;;;;5054306;28;20177;-87
2021/10/04 09:18:41;;;;;;;0.40;0.40;;;;;;;;;;5057367;28;20181;-85
2021/10/04 09:21:11;;;;;;;0.40;0.40;;;;;;;;;;5053243;28;20201;-85
2021/10/04 09:23:48;;;;;;;0.40;0.40;;;;;;;;;;5056779;28;20204;-85
2021/10/04 09:26:26;;;;;;;0.40;0.40;;;;;;;;;;5073824;28;20185;-86
2021/10/04 09:28:58;;;;;;;0.40;0.40;;;;;;;;;;5059237;28;20189;-85
2021/10/04 09:31:26;;;;;;;0.40;0.40;;;;;;;;;;5062130;28;20181;-87
2021/10/04 09:34:09;;;;;;;0.40;0.40;;;;;;;;;;5064605;28;20196;-87
2021/10/04 09:36:42;;;;;;;0.40;0.40;;;;;;;;;;5061854;28;20178;-87
2021/10/04 09:39:13;;;;;;;0.40;0.40;;;;;;;;;;5058542;28;20545;-85
2021/10/04 09:41:58;;;;;;;0.40;0.40;;;;;;;;;;5062492;28;20183;-84
2021/10/04 09:44:27;;;;;;;0.40;0.40;;;;;;;;;;5060814;28;20248;-85
2021/10/04 09:47:13;;;;;;;0.40;0.40;;;;;;;;;;5051162;28;20210;-86
2021/10/04 09:49:56;;;;;;;0.40;0.40;;;;;;;;;;5061760;28;20244;-85
2021/10/04 09:52:35;;;;;;;0.40;0.40;;;;;;;;;;5065175;28;20182;-86
2021/10/04 09:55:01;;;;;;;0.40;0.40;;;;;;;;;;5056937;28;20207;-85
2021/10/04 09:57:27;;;;;;;0.40;0.40;;;;;;;;;;5061843;28;20206;-85
2021/10/04 09:59:55;;;;;;;0.40;0.40;;;;;;;;;;5064432;28;20185;-83
2021/10/04 10:02:21;;;;;;;0.40;0.40;;;;;;;;;;5060764;28;20189;-86
2021/10/04 10:04:50;;;;;;;0.40;0.40;;;;;;;;;;5062325;28;20305;-85
2021/10/04 10:07:16;;;;;;;0.40;0.40;;;;;;;;;;5065367;28;20461;-84
2021/10/04 10:09:42;;;;;;;0.40;0.40;;;;;;;;;;5057910;28;20189;-84
2021/10/04 10:12:09;;;;;;;0.40;0.40;;;;;;;;;;5063656;28;20441;-83
2021/10/04 10:14:42;;;;;;;0.40;0.40;;;;;;;;;;5060535;28;20524;-87
2021/10/04 10:17:21;;;;;;;0.40;0.40;;;;;;;;;;5063611;28;20185;-86
2021/10/04 10:19:49;;;;;;;0.40;0.40;;;;;;;;;;5056826;28;20210;-87
2021/10/04 10:22:16;;;;;;;0.40;0.40;;;;;;;;;;5063814;28;20177;-86
2021/10/04 10:24:43;;;;;;;0.40;0.40;;;;;;;;;;5056864;28;20221;-86
2021/10/04 10:27:09;;;;;;;0.40;0.40;;;;;;;;;;5057443;28;20635;-86
2021/10/04 10:29:35;;;;;;;0.40;0.40;;;;;;;;;;5051746;28;20184;-84
2021/10/04 10:32:01;;;;;;;0.40;0.40;;;;;;;;;;5060657;28;20215;-84
2021/10/04 10:34:31;;;;;;;0.40;0.40;;;;;;;;;;5061560;28;20515;-84
2021/10/04 10:37:00;;;;;;;0.40;0.40;;;;;;;;;;5061556;28;20442;-86
2021/10/04 10:39:34;;;;;;;0.40;0.40;;;;;;;;;;5061211;28;20201;-85
2021/10/04 10:42:10;;;;;;;0.40;0.40;;;;;;;;;;5056020;28;20224;-85
2021/10/04 10:44:56;;;;;;;0.40;0.40;;;;;;;;;;5065949;28;20310;-84
2021/10/04 10:47:37;;;;;;;0.40;0.40;;;;;;;;;;5064027;28;20280;-83
2021/10/04 10:50:05;;;;;;;0.40;0.40;;;;;;;;;;5072898;28;20193;-85
2021/10/04 10:52:32;;;;;;;0.40;0.40;;;;;;;;;;5060095;28;20183;-84
2021/10/04 10:54:58;;;;;;;0.40;0.40;;;;;;;;;;5064232;28;20177;-83
2021/10/04 10:57:43;;;;;;;0.40;0.40;;;;;;;;;;5060046;28;20221;-84
2021/10/04 11:00:19;;;;;;;0.40;0.40;;;;;;;;;;5050634;28;20189;-87
2021/10/04 11:02:55;;;;;;;0.40;0.40;;;;;;;;;;5058821;28;20185;-86
2021/10/04 11:05:36;;;;;;;0.40;0.40;;;;;;;;;;5074808;28;20224;-83
2021/10/04 11:08:03;;;;;;;0.40;0.40;;;;;;;;;;5057107;28;20209;-87
2021/10/04 11:10:29;;;;;;;0.40;0.40;;;;;;;;;;5059650;28;20161;-83
2021/10/04 11:13:10;;;;;;;0.40;0.40;;;;;;;;;;5061698;28;20168;-86
2021/10/04 11:15:37;;;;;;;0.40;0.40;;;;;;;;;;5061132;28;20243;-87
2021/10/04 11:18:03;;;;;;;0.40;0.40;;;;;;;;;;5058604;28;20193;-85
2021/10/04 11:20:29;;;;;;;0.40;0.40;;;;;;;;;;5060522;28;20200;-85
2021/10/04 11:23:02;;;;;;;0.40;0.40;;;;;;;;;;5062212;28;20212;-85
2021/10/04 11:25:28;;;;;;;0.40;0.40;;;;;;;;;;5076049;28;20205;-83
2021/10/04 11:27:54;;;;;;;0.40;0.40;;;;;;;;;;5061152;28;20177;-87
2021/10/04 11:30:20;;;;;;;0.40;0.40;;;;;;;;;;5056841;28;20196;-83
2021/10/04 11:33:05;;;;;;;0.40;0.40;;;;;;;;;;5056481;28;20423;-86
2021/10/04 11:35:31;;;;;;;0.40;0.40;;;;;;;;;;5062138;28;20677;-84
2021/10/04 11:37:57;;;;;;;0.40;0.40;;;;;;;;;;5059304;28;20177;-78
2021/10/04 11:40:23;;;;;;;0.40;0.40;;;;;;;;;;5076455;28;20458;-84
2021/10/04 11:42:49;;;;;;;0.40;0.40;;;;;;;;;;5056987;28;20435;-82
2021/10/04 11:45:15;;;;;;;0.40;0.40;;;;;;;;;;5057149;28;20462;-83
2021/10/04 11:47:42;;;;;;;0.40;0.40;;;;;;;;;;5067564;28;20181;-85
2021/10/04 11:50:11;;;;;;;0.40;0.40;;;;;;;;;;5059389;28;20428;-85
2021/10/04 11:52:37;;;;;;;0.40;0.40;;;;;;;;;;5073763;28;20238;-85
2021/10/04 11:55:09;;;;;;;0.40;0.40;;;;;;;;;;5062333;28;20181;-85
2021/10/04 11:57:36;;;;;;;0.40;0.40;;;;;;;;;;5056659;28;20276;-85
2021/10/04 12:00:10;;;;;;;0.40;0.40;;;;;;;;;;5058286;28;20193;-86
2021/10/04 12:02:39;;;;;;;0.40;0.40;;;;;;;;;;5047875;28;20235;-85
2021/10/04 12:05:14;;;;;;;0.40;0.40;;;;;;;;;;5074205;28;20208;-82
2021/10/04 12:07:59;;;;;;;0.40;0.40;;;;;;;;;;5056129;28;20291;-82
2021/10/04 12:10:38;;;;;;;0.40;0.40;;;;;;;;;;5060518;28;20168;-82
2021/10/04 12:13:04;;;;;;;0.40;0.40;;;;;;;;;;5058418;28;20208;-86
2021/10/04 12:15:30;;;;;;;0.40;0.40;;;;;;;;;;5054492;28;20201;-86
2021/10/04 12:17:56;;;;;;;0.40;0.40;;;;;;;;;;5066797;28;20433;-86
2021/10/04 12:20:23;;;;;;;0.40;0.40;;;;;;;;;;5070670;28;20550;-84
2021/10/04 12:22:49;;;;;;;0.40;0.40;;;;;;;;;;5058447;28;20411;-85
2021/10/04 12:25:28;;;;;;;0.40;0.40;;;;;;;;;;5063080;28;20246;-86
2021/10/04 12:28:04;;;;;;;0.40;0.40;;;;;;;;;;5061471;28;20177;-85
2021/10/04 12:30:44;;;;;;;0.40;0.40;;;;;;;;;;5054871;28;20189;-86
2021/10/04 12:33:10;;;;;;;0.50;0.40;;;;;;;;;;5061736;28;20220;-86
2021/10/04 12:35:36;;;;;;;0.40;0.40;;;;;;;;;;5057509;28;20196;-85
2021/10/04 12:38:06;;;;;;;0.40;0.40;;;;;;;;;;5060813;28;20433;-86
2021/10/04 12:40:40;;;;;;;0.40;0.40;;;;;;;;;;5057151;28;20185;-84
2021/10/04 12:43:07;;;;;;;0.40;0.40;;;;;;;;;;5060578;28;20581;-85
2021/10/04 12:45:34;;;;;;;0.40;0.40;;;;;;;;;;5057957;28;20205;-84
2021/10/04 12:48:27;;;;;;;0.40;0.40;;;;;;;;;;5056044;28;20181;-82
2021/10/04 12:51:03;;;;;;;0.40;0.40;;;;;;;;;;5048709;28;20245;-85
2021/10/04 12:53:29;;;;;;;0.40;0.40;;;;;;;;;;5071701;28;20178;-85
2021/10/04 12:55:55;;;;;;;0.40;0.40;;;;;;;;;;5056779;28;20397;-85
2021/10/04 12:58:22;;;;;;;0.40;0.40;;;;;;;;;;5058063;28;20481;-80
2021/10/04 13:00:50;;;;;;;0.40;0.40;;;;;;;;;;5055168;28;20512;-83
2021/10/04 13:03:16;;;;;;;0.40;0.40;;;;;;;;;;5062822;28;20185;-86
2021/10/04 13:05:42;;;;;;;0.40;0.40;;;;;;;;;;5062845;28;20730;-84
2021/10/04 13:08:08;;;;;;;0.40;0.40;;;;;;;;;;5074694;28;20187;-84
2021/10/04 13:10:34;;;;;;;0.40;0.40;;;;;;;;;;5064234;28;20172;-85
2021/10/04 13:13:01;;;;;;;0.40;0.40;;;;;;;;;;5063273;28;20181;-85
2021/10/04 13:15:28;;;;;;;0.40;0.40;;;;;;;;;;5061457;28;20667;-87
2021/10/04 13:17:53;;;;;;;0.40;0.40;;;;;;;;;;5063710;28;20185;-86
2021/10/04 13:20:19;;;;;;;0.40;0.40;;;;;;;;;;5064178;28;20196;-83
2021/10/04 13:22:46;;;;;;;0.40;0.40;;;;;;;;;;5060636;28;20447;-87
2021/10/04 13:25:12;;;;;;;0.57;0.57;;;;;;;;;;5066069;28;20456;-85
2021/10/04 13:27:38;;;;;;;0.40;0.40;;;;;;;;;;5058223;28;20233;-87
2021/10/04 13:30:09;;;;;;;0.40;0.40;;;;;;;;;;5062889;28;20710;-86
2021/10/04 13:32:35;;;;;;;0.40;0.40;;;;;;;;;;5075929;28;20200;-85
2021/10/04 13:35:01;;;;;;;3.65;1.00;;;;;;;;;;5064237;28;20190;-84
2021/10/04 13:37:27;;;;;;;4.20;1.40;;;;;;;;;;5079394;28;20184;-86
2021/10/04 13:39:53;;;;;;;7.80;1.15;;;;;;;;;;5078632;28;20425;-85
2021/10/04 13:42:19;;;;;;;3.90;1.30;;;;;;;;;;5062623;28;20175;-85
2021/10/04 13:44:45;;;;;;;3.40;1.10;;;;;;;;;;5062766;28;20238;-84
2021/10/04 13:47:11;;;;;;;2.85;1.00;;;;;;;;;;5063955;28;20445;-86
2021/10/04 13:49:37;;;;;;;3.28;1.30;;;;;;;;;;5063177;28;20175;-85
2021/10/04 13:52:04;;;;;;;3.92;1.30;;;;;;;;;;5063618;28;20188;-84
2021/10/04 13:54:30;;;;;;;5.45;1.13;;;;;;;;;;5060177;28;20240;-86
2021/10/04 13:56:56;;;;;;;3.75;1.15;;;;;;;;;;5062049;28;20194;-85
2021/10/04 13:59:22;;;;;;;4.73;1.00;;;;;;;;;;5064271;28;20178;-87
2021/10/04 14:01:49;;;;;;;3.43;1.10;;;;;;;;;;5057769;28;20425;-85
2021/10/04 14:04:15;;;;;;;2.00;1.15;;;;;;;;;;5072476;28;20446;-85
2021/10/04 14:06:41;;;;;;;5.70;1.20;;;;;;;;;;5058601;28;20190;-86
2021/10/04 14:09:07;;;;;;;3.78;1.63;;;;;;;;;;5056692;28;20578;-86
2021/10/04 14:11:34;;;;;;;4.05;1.20;;;;;;;;;;5061289;28;20238;-89
2021/10/04 14:14:00;;;;;;;1.85;1.10;;;;;;;;;;5057345;28;20216;-85
2021/10/04 14:16:26;;;;;;;1.95;1.17;;;;;;;;;;5061379;28;20200;-86
2021/10/04 14:18:54;;;;;;;2.50;0.90;;;;;;;;;;5063205;28;20179;-85
2021/10/04 14:21:20;;;;;;;3.25;1.25;;;;;;;;;;5059698;28;20416;-85
2021/10/04 14:23:46;;;;;;;3.37;1.40;;;;;;;;;;5059366;28;20236;-87
2021/10/04 14:26:12;;;;;;;5.03;1.17;;;;;;;;;;5062432;28;20479;-85
2021/10/04 14:28:38;;;;;;;3.63;1.60;;;;;;;;;;5057983;28;20165;-85
2021/10/04 14:31:05;;;;;;;4.35;1.30;;;;;;;;;;5059541;28;20432;-85
2021/10/04 14:33:31;;;;;;;2.33;1.08;;;;;;;;;;5060368;28;20185;-86
2021/10/04 14:35:57;;;;;;;6.03;1.03;;;;;;;;;;5058611;28;20197;-87
2021/10/04 14:38:23;;;;;;;3.13;1.20;;;;;;;;;;5061199;28;20427;-84
2021/10/04 14:40:49;;;;;;;1.45;0.90;;;;;;;;;;5061940;28;20185;-86
2021/10/04 14:43:16;;;;;;;2.65;1.25;;;;;;;;;;5061617;28;20581;-85
2021/10/04 14:45:42;;;;;;;2.28;1.08;;;;;;;;;;5058247;28;20230;-84